Terminal Aerodrome Forecast
Issued by NWS Pocatello, ID

Home | Current Version | Previous Version | Text Only | Print | Product List | Glossary On
Versions: 1 2 3 4 5 6 7 8 9 10 11 12 13 14 15
000
FTUS45 KPIH 042320
TAFIDA
TAF
KIDA 042320Z 0500/0524 19013G23KT P6SM VCTS SCT070 BKN120CB
      TEMPO 0500/0502 36010G20KT SCT050CB
     FM050600 18007KT P6SM SCT100 BKN150
     FM051600 22012KT P6SM VCSH SCT090 BKN150
     FM051900 22012G22KT P6SM VCTS SCT080 BKN120CB=

USA.gov is the U.S. government's official web portal to all federal, state and local government web resources and services.